Terminal Aerodrome Forecast
Issued by NWS Albany, NY

Home | Current Version | Previous Version | Text Only | Print | Product List | Glossary On
Versions: 1 2 3 4 5 6 7 8 9 10 11 12 13 14 15 16 17 18 19 20 21 22 23 24 25 26
000
FTUS41 KALY 230800 AAA
TAFALB
TAF AMD
KALB 230807Z 2308/2406 36003KT P6SM VCSH FEW004 OVC035
      TEMPO 2308/2312 4SM -DZ BR SCT004 BKN025 OVC035
     FM231200 04004KT P6SM VCSH BKN025 OVC040
     FM231600 08006KT P6SM BKN045
     FM232300 VRB03KT P6SM SCT040=

USA.gov is the U.S. government's official web portal to all federal, state and local government web resources and services.